createdAt,value
2019-01-17T04:03:59.586Z,71.60
2019-01-17T04:06:28.765Z,71.60
2019-01-17T04:08:57.960Z,71.70
2019-01-17T04:11:27.124Z,71.70
2019-01-17T04:13:56.400Z,71.80
2019-01-17T04:16:25.559Z,71.80
2019-01-17T04:18:54.771Z,71.80
2019-01-17T04:21:23.923Z,71.80
2019-01-17T04:23:53.190Z,71.90
2019-01-17T04:26:22.381Z,71.70
2019-01-17T04:28:51.567Z,71.80
2019-01-17T04:31:20.791Z,71.70
2019-01-17T04:33:50.072Z,71.70
2019-01-17T04:36:19.306Z,71.70
2019-01-17T04:38:48.502Z,71.60
2019-01-17T04:41:17.682Z,71.70
2019-01-17T04:43:46.901Z,71.80
2019-01-17T04:46:16.023Z,71.80
2019-01-17T04:48:45.252Z,71.80
2019-01-17T04:51:14.460Z,71.80
2019-01-17T04:53:43.717Z,71.80
2019-01-17T04:56:12.962Z,71.80
2019-01-17T04:58:44.883Z,71.90
2019-01-17T05:01:14.040Z,71.90
2019-01-17T05:03:43.208Z,71.90
2019-01-17T05:06:12.519Z,71.90
2019-01-17T05:08:41.815Z,71.90
2019-01-17T05:11:10.986Z,71.90
2019-01-17T05:13:40.154Z,71.90
2019-01-17T05:16:09.347Z,72.00
2019-01-17T05:18:38.541Z,72.00
2019-01-17T05:21:07.721Z,72.00
2019-01-17T05:23:36.908Z,72.00
2019-01-17T05:26:06.094Z,72.00
2019-01-17T05:28:35.304Z,72.00
2019-01-17T05:31:05.205Z,72.00
2019-01-17T05:33:34.529Z,72.00
2019-01-17T05:36:03.747Z,72.00
2019-01-17T05:38:32.926Z,72.00
2019-01-17T05:41:02.122Z,72.00
2019-01-17T05:43:31.503Z,72.20
2019-01-17T05:46:00.697Z,72.30
2019-01-17T05:48:29.925Z,72.20
2019-01-17T05:50:59.196Z,72.20
2019-01-17T05:53:28.499Z,72.30
2019-01-17T05:56:00.545Z,72.30
2019-01-17T05:58:29.673Z,72.30
2019-01-17T06:00:58.858Z,72.30
2019-01-17T06:03:28.163Z,72.40
2019-01-17T06:05:58.946Z,72.50
2019-01-17T06:08:29.784Z,72.50
2019-01-17T06:10:59.046Z,72.50
2019-01-17T06:13:28.292Z,72.60
2019-01-17T06:15:57.815Z,72.50
2019-01-17T06:18:26.986Z,72.50
2019-01-17T06:20:58.798Z,72.60
2019-01-17T06:23:27.950Z,72.60
